Time;durP1;ratioP1;P1;durP2;ratioP2;P2;SDS_P1;SDS_P2;PMS_P1;PMS_P2;Temp;Humidity;BMP_temperature;BMP_pressure;BME280_temperature;BME280_humidity;BME280_pressure;Samples;Min_cycle;Max_cycle;Signal;HPM_P1;HPM_P2
2024/01/02 00:00:14;;;;;;;60.22;32.38;;;;;;;10.33;68.37;99438.31;5011309;28;20470;-27
2024/01/02 00:02:40;;;;;;;59.38;32.90;;;;;;;10.17;68.38;99448.34;5011648;28;20026;-27
2024/01/02 00:05:06;;;;;;;59.42;31.33;;;;;;;10.17;68.07;99456.31;5011473;28;20038;-27
2024/01/02 00:07:31;;;;;;;60.25;31.77;;;;;;;10.10;68.72;99454.69;5011561;28;20109;-27
2024/01/02 00:09:56;;;;;;;60.10;33.38;;;;;;;10.28;67.54;99462.84;5011551;28;20091;-27
2024/01/02 00:12:22;;;;;;;58.10;32.95;;;;;;;10.29;67.34;99461.00;5011326;28;20022;-27
2024/01/02 00:14:47;;;;;;;53.92;30.05;;;;;;;10.05;68.59;99454.50;5011242;28;20030;-27
2024/01/02 00:17:13;;;;;;;49.83;29.33;;;;;;;10.05;68.30;99460.66;5011403;28;20041;-27
2024/01/02 00:19:38;;;;;;;50.42;28.35;;;;;;;10.05;68.49;99460.66;5011432;28;20026;-27
2024/01/02 00:22:03;;;;;;;55.45;29.10;;;;;;;9.96;68.80;99454.72;5010808;28;20578;-27
2024/01/02 00:24:29;;;;;;;47.22;27.08;;;;;;;9.74;69.74;99432.03;5011411;28;20028;-27
2024/01/02 00:26:54;;;;;;;49.20;27.65;;;;;;;9.76;70.05;99437.97;5011459;28;20030;-27
2024/01/02 00:29:20;;;;;;;49.60;28.52;;;;;;;9.77;69.27;99437.78;5011316;28;20058;-27
2024/01/02 00:31:45;;;;;;;50.40;28.50;;;;;;;9.65;69.31;99435.94;5011202;28;20476;-26
2024/01/02 00:34:12;;;;;;;49.13;27.38;;;;;;;9.74;68.55;99427.53;5011067;28;20053;-27
2024/01/02 00:36:37;;;;;;;50.10;28.45;;;;;;;9.78;68.80;99431.41;5010968;28;20500;-27
2024/01/02 00:39:03;;;;;;;48.58;27.77;;;;;;;9.84;68.27;99439.59;5010915;28;20018;-27
2024/01/02 00:41:28;;;;;;;51.83;28.63;;;;;;;9.82;67.91;99441.66;5011022;28;20029;-27
2024/01/02 00:43:53;;;;;;;48.00;27.05;;;;;;;9.60;68.62;99436.56;5011345;28;20104;-27
2024/01/02 00:46:19;;;;;;;47.00;25.63;;;;;;;9.36;69.93;99444.06;5010920;28;20435;-26
2024/01/02 00:48:44;;;;;;;46.58;25.70;;;;;;;9.26;70.20;99443.66;5010919;28;20033;-27
2024/01/02 00:51:11;;;;;;;45.40;26.38;;;;;;;9.38;70.04;99450.00;5010919;28;20069;-26
2024/01/02 00:53:37;;;;;;;47.97;26.05;;;;;;;9.47;69.43;99441.88;5010706;28;20457;-26
2024/01/02 00:56:03;;;;;;;56.92;26.90;;;;;;;9.66;68.79;99440.22;5010796;28;20026;-26
2024/01/02 00:58:28;;;;;;;48.38;27.10;;;;;;;9.66;68.60;99446.34;5011011;28;20026;-26
2024/01/02 01:00:54;;;;;;;42.70;25.17;;;;;;;9.67;68.60;99431.22;5010827;28;20068;-26
2024/01/02 01:03:19;;;;;;;44.80;25.27;;;;;;;9.72;68.38;99429.59;5010668;28;20054;-26
2024/01/02 01:05:44;;;;;;;43.70;24.67;;;;;;;9.70;68.76;99434.28;5011047;28;20114;-26
2024/01/02 01:08:11;;;;;;;51.92;26.08;;;;;;;9.68;68.17;99435.53;5010682;28;20091;-26
2024/01/02 01:10:36;;;;;;;44.95;25.70;;;;;;;9.67;68.11;99437.38;5010750;28;20029;-26
2024/01/02 01:13:01;;;;;;;42.42;26.02;;;;;;;9.58;68.81;99444.72;5011225;28;20026;-27
2024/01/02 01:15:27;;;;;;;45.10;25.45;;;;;;;9.64;68.60;99443.09;5010547;28;20605;-26
2024/01/02 01:17:52;;;;;;;48.85;26.02;;;;;;;9.51;68.77;99435.13;5010582;28;20501;-26
2024/01/02 01:20:18;;;;;;;47.50;26.02;;;;;;;9.46;68.88;99429.59;5010773;28;20030;-27
2024/01/02 01:22:43;;;;;;;47.70;26.27;;;;;;;9.55;68.86;99436.34;5010389;28;20022;-26
2024/01/02 01:25:08;;;;;;;47.88;27.48;;;;;;;9.57;68.47;99434.28;5010445;28;20057;-26
2024/01/02 01:27:34;;;;;;;45.72;24.58;;;;;;;9.50;68.42;99436.97;5010559;28;20097;-27
2024/01/02 01:29:59;;;;;;;45.13;25.77;;;;;;;9.36;69.69;99433.47;5010724;28;20497;-26
2024/01/02 01:32:24;;;;;;;48.67;26.33;;;;;;;9.52;69.02;99432.25;5010565;28;20018;-26
2024/01/02 01:34:50;;;;;;;47.75;24.88;;;;;;;9.50;69.09;99428.16;5012041;28;20132;-26
2024/01/02 01:37:15;;;;;;;46.75;24.40;;;;;;;9.43;69.36;99428.16;5014253;28;20022;-26
2024/01/02 01:39:40;;;;;;;47.70;25.50;;;;;;;9.47;69.20;99420.63;5014141;28;20026;-26
2024/01/02 01:42:06;;;;;;;41.30;23.38;;;;;;;9.35;69.00;99397.31;5014176;28;20049;-26
2024/01/02 01:44:31;;;;;;;43.47;24.25;;;;;;;9.53;68.95;99414.47;5014461;28;20060;-26
2024/01/02 01:46:57;;;;;;;39.25;23.23;;;;;;;9.43;69.60;99414.06;5013811;28;20022;-26
2024/01/02 01:49:22;;;;;;;45.28;23.88;;;;;;;9.41;69.91;99408.16;5013907;28;20441;-26
2024/01/02 01:51:51;;;;;;;41.40;22.70;;;;;;;9.37;70.49;99408.56;5013509;28;20041;-27
2024/01/02 01:54:17;;;;;;;40.95;22.92;;;;;;;9.46;70.05;99403.88;5013710;28;20033;-25
2024/01/02 01:56:43;;;;;;;44.22;23.20;;;;;;;9.47;70.01;99404.69;5013545;28;20030;-25
2024/01/02 01:59:12;;;;;;;42.40;23.98;;;;;;;9.50;70.19;99399.78;5013677;28;20018;-26
2024/01/02 02:01:38;;;;;;;38.17;22.30;;;;;;;9.37;70.73;99391.81;5013749;28;20026;-26
2024/01/02 02:04:04;;;;;;;40.53;23.88;;;;;;;9.54;69.71;99386.91;5013661;28;20026;-26
2024/01/02 02:06:29;;;;;;;39.22;23.08;;;;;;;9.45;69.48;99396.09;5013613;28;20033;-26
2024/01/02 02:08:55;;;;;;;41.47;22.95;;;;;;;9.28;70.12;99391.19;5013413;28;20507;-27
2024/01/02 02:11:20;;;;;;;40.97;23.38;;;;;;;9.40;69.57;99388.72;5013348;28;20118;-26
2024/01/02 02:13:47;;;;;;;44.70;23.65;;;;;;;9.39;69.83;99374.63;5013293;28;20038;-26
2024/01/02 02:16:14;;;;;;;43.42;23.17;;;;;;;9.15;70.85;99376.03;5013435;28;20029;-26
2024/01/02 02:18:39;;;;;;;40.35;23.88;;;;;;;9.25;70.91;99365.03;5013462;28;20045;-26
2024/01/02 02:21:05;;;;;;;45.92;23.92;;;;;;;8.95;71.89;99364.63;5013260;28;20026;-26
2024/01/02 02:23:30;;;;;;;44.13;24.05;;;;;;;8.60;73.29;99359.41;5013428;28;20497;-26
2024/01/02 02:25:56;;;;;;;42.45;24.33;;;;;;;8.82;72.67;99368.06;5013124;28;20026;-26
2024/01/02 02:28:21;;;;;;;44.08;24.23;;;;;;;9.17;71.73;99367.88;5013152;28;20030;-26
2024/01/02 02:30:47;;;;;;;43.97;24.35;;;;;;;9.19;71.59;99366.69;5013229;28;20379;-26
2024/01/02 02:33:12;;;;;;;46.90;25.23;;;;;;;9.22;71.21;99368.09;5012925;28;20025;-26
2024/01/02 02:35:37;;;;;;;44.22;25.02;;;;;;;9.31;70.75;99366.03;5013152;28;20022;-26
2024/01/02 02:38:03;;;;;;;45.35;24.50;;;;;;;9.29;70.14;99379.56;5013203;28;20053;-26
2024/01/02 02:40:28;;;;;;;48.20;25.85;;;;;;;9.30;70.35;99380.34;5013108;28;20022;-26
2024/01/02 02:42:53;;;;;;;48.83;25.35;;;;;;;9.26;70.98;99379.94;5013132;28;20054;-26
2024/01/02 02:45:19;;;;;;;47.03;25.42;;;;;;;9.38;70.36;99391.56;5012314;28;20045;-26
2024/01/02 02:47:45;;;;;;;46.15;26.13;;;;;;;9.39;70.36;99400.38;5012921;28;20449;-26
2024/01/02 02:50:11;;;;;;;43.97;24.20;;;;;;;9.44;70.44;99407.72;5012869;28;20049;-26
2024/01/02 02:52:36;;;;;;;43.75;25.05;;;;;;;9.45;69.85;99412.84;5012646;28;20080;-26
2024/01/02 02:55:02;;;;;;;42.63;25.27;;;;;;;9.54;69.96;99405.50;5012824;28;20036;-26
2024/01/02 02:57:28;;;;;;;51.90;26.20;;;;;;;9.39;70.43;99398.53;5012499;28;20443;-26
2024/01/02 02:59:53;;;;;;;48.70;25.75;;;;;;;9.47;69.87;99386.09;5012438;28;20155;-26
2024/01/02 03:02:18;;;;;;;46.28;24.75;;;;;;;9.49;70.11;99384.84;5012683;28;20084;-26
2024/01/02 03:04:44;;;;;;;42.92;24.75;;;;;;;9.57;69.78;99387.28;5012691;28;20022;-26
2024/01/02 03:07:10;;;;;;;44.88;24.25;;;;;;;9.54;69.42;99390.38;5012447;28;20026;-26
2024/01/02 03:09:36;;;;;;;43.13;23.88;;;;;;;9.61;69.20;99385.03;5012562;28;20037;-26
2024/01/02 03:12:02;;;;;;;43.50;24.58;;;;;;;9.62;68.92;99393.84;5012467;28;20025;-26
2024/01/02 03:14:27;;;;;;;44.30;25.10;;;;;;;9.58;69.60;99380.16;5012374;28;20461;-26
2024/01/02 03:16:53;;;;;;;46.88;25.48;;;;;;;9.67;69.68;99386.91;5012255;28;20029;-26
2024/01/02 03:19:19;;;;;;;46.63;25.75;;;;;;;9.50;70.36;99393.63;5012352;28;20025;-26
2024/01/02 03:21:44;;;;;;;42.42;24.52;;;;;;;9.61;69.88;99397.50;5012178;28;20486;-26
2024/01/02 03:24:10;;;;;;;46.15;26.55;;;;;;;9.65;70.00;99404.84;5012109;28;20029;-26
2024/01/02 03:26:35;;;;;;;46.22;26.02;;;;;;;9.51;69.79;99408.56;5011949;28;20067;-26
2024/01/02 03:29:00;;;;;;;44.10;24.80;;;;;;;9.61;69.40;99405.47;5012096;28;20375;-26
2024/01/02 03:31:26;;;;;;;41.03;24.13;;;;;;;9.40;70.37;99407.31;5011878;28;20032;-26
2024/01/02 03:33:51;;;;;;;43.47;24.23;;;;;;;8.92;72.22;99395.00;5012140;28;20095;-26
2024/01/02 03:36:18;;;;;;;44.40;24.75;;;;;;;8.79;72.69;99401.09;5011640;28;20021;-26
2024/01/02 03:38:48;;;;;;;44.70;24.60;;;;;;;8.68;73.37;99392.91;5011905;28;20032;-26
2024/01/02 03:41:14;;;;;;;;;;;;;;;8.84;73.27;99381.13;5012378;28;20532;-27
2024/01/02 03:43:40;;;;;;;44.60;24.27;;;;;;;8.98;72.18;99380.13;5011729;28;19940;-26
2024/01/02 03:46:05;;;;;;;43.50;24.27;;;;;;;8.97;72.45;99387.25;5011478;28;20018;-26
2024/01/02 03:48:31;;;;;;;42.63;23.90;;;;;;;8.87;73.20;99386.00;5011605;28;20100;-26
2024/01/02 03:50:56;;;;;;;43.67;24.63;;;;;;;9.03;71.80;99383.00;5011405;28;20077;-26
2024/01/02 03:53:22;;;;;;;42.78;23.13;;;;;;;9.23;71.48;99382.19;5012081;28;20036;-26
2024/01/02 03:55:47;;;;;;;41.80;24.42;;;;;;;9.04;72.18;99373.19;5011599;28;20498;-26
2024/01/02 03:58:13;;;;;;;41.28;23.83;;;;;;;8.78;72.80;99372.13;5010727;28;20022;-26
2024/01/02 04:00:39;;;;;;;42.88;23.45;;;;;;;8.95;72.37;99354.00;5011733;28;20049;-26
2024/01/02 04:03:05;;;;;;;42.88;23.77;;;;;;;9.29;71.60;99363.63;5011523;28;20026;-26
2024/01/02 04:05:30;;;;;;;44.47;24.85;;;;;;;9.39;71.18;99360.56;5011505;28;20472;-26
2024/01/02 04:07:56;;;;;;;44.28;24.85;;;;;;;9.52;70.42;99354.38;5011446;28;20021;-26
2024/01/02 04:10:21;;;;;;;40.03;23.80;;;;;;;9.46;70.35;99363.19;5011430;28;20033;-26
2024/01/02 04:12:46;;;;;;;43.20;24.55;;;;;;;9.46;70.49;99377.31;5011359;28;20466;-26
2024/01/02 04:15:12;;;;;;;41.15;24.05;;;;;;;9.43;70.42;99375.03;5011309;28;20025;-26
2024/01/02 04:17:37;;;;;;;43.35;24.80;;;;;;;9.20;72.03;99373.59;5011349;28;20022;-26
2024/01/02 04:20:03;;;;;;;43.55;24.52;;;;;;;9.42;70.88;99376.06;5011244;28;20037;-25
2024/01/02 04:22:28;;;;;;;43.40;25.08;;;;;;;9.36;71.32;99379.53;5011271;28;20017;-26
2024/01/02 04:24:54;;;;;;;45.53;25.45;;;;;;;9.41;71.09;99382.41;5011151;28;20081;-26
2024/01/02 04:27:19;;;;;;;42.75;24.38;;;;;;;9.52;70.24;99373.81;5010795;28;20459;-26
2024/01/02 04:29:44;;;;;;;43.80;24.33;;;;;;;9.63;70.29;99375.03;5011155;28;20034;-26
2024/01/02 04:32:10;;;;;;;44.53;24.55;;;;;;;9.69;69.82;99379.53;5010944;28;20030;-26
2024/01/02 04:34:36;;;;;;;42.35;24.65;;;;;;;9.71;69.89;99374.81;5011257;28;20080;-26
2024/01/02 04:37:01;;;;;;;44.10;25.30;;;;;;;9.64;69.71;99386.47;5011110;28;20466;-26
2024/01/02 04:39:27;;;;;;;41.25;23.08;;;;;;;9.63;70.00;99390.97;5010974;28;20036;-26
2024/01/02 04:41:52;;;;;;;41.88;23.90;;;;;;;9.70;70.11;99391.78;5010815;28;20026;-26
2024/01/02 04:44:18;;;;;;;42.65;23.88;;;;;;;9.73;69.04;99386.06;5010813;28;20036;-26
2024/01/02 04:46:43;;;;;;;40.03;23.48;;;;;;;9.73;69.47;99388.72;5011129;28;20029;-25
2024/01/02 04:49:09;;;;;;;42.10;24.75;;;;;;;9.76;69.30;99393.59;5010871;28;20068;-26
2024/01/02 04:51:34;;;;;;;43.15;23.60;;;;;;;9.63;69.51;99374.22;5010629;28;20054;-25
2024/01/02 04:53:59;;;;;;;38.92;23.38;;;;;;;9.48;70.97;99387.69;5011115;28;20054;-26
2024/01/02 04:56:25;;;;;;;41.83;23.52;;;;;;;9.54;70.44;99382.41;5010702;28;20021;-26
2024/01/02 04:58:50;;;;;;;38.80;22.90;;;;;;;9.68;69.94;99385.03;5010450;28;20101;-25
2024/01/02 05:01:16;;;;;;;40.63;24.20;;;;;;;9.51;70.60;99376.69;5011049;28;20026;-25
2024/01/02 05:03:41;;;;;;;44.22;23.60;;;;;;;9.51;70.71;99385.47;5011268;28;20033;-26
2024/01/02 05:06:07;;;;;;;40.47;23.30;;;;;;;9.20;71.42;99364.84;5011101;28;20529;-27
2024/01/02 05:08:34;;;;;;;42.33;23.85;;;;;;;9.54;70.83;99402.84;5012027;28;20504;-26
2024/01/02 05:10:59;;;;;;;41.03;24.23;;;;;;;9.52;71.19;99403.03;5015042;28;20026;-26
2024/01/02 05:13:25;;;;;;;40.50;23.08;;;;;;;9.21;71.93;99393.00;5014835;28;20196;-26
2024/01/02 05:15:50;;;;;;;42.40;23.73;;;;;;;9.57;71.01;99402.41;5015023;28;20456;-26
2024/01/02 05:18:16;;;;;;;42.13;24.95;;;;;;;9.68;69.97;99388.50;5014809;28;20026;-26
2024/01/02 05:20:42;;;;;;;41.72;23.52;;;;;;;9.70;69.80;99391.78;5014575;28;20035;-26
2024/01/02 05:23:07;;;;;;;40.45;23.60;;;;;;;9.74;69.34;99397.50;5014900;28;20435;-26
2024/01/02 05:25:32;;;;;;;42.83;23.75;;;;;;;9.85;69.51;99380.94;5014633;28;20111;-26
2024/01/02 05:27:58;;;;;;;41.65;24.23;;;;;;;9.96;68.25;99392.78;5014598;28;20033;-26
2024/01/02 05:30:23;;;;;;;42.13;24.35;;;;;;;9.64;69.55;99384.63;5014463;28;20034;-26
2024/01/02 05:32:49;;;;;;;46.33;23.70;;;;;;;9.73;69.48;99387.91;5014318;28;20037;-26
2024/01/02 05:35:14;;;;;;;40.75;23.88;;;;;;;9.71;69.64;99381.97;5014238;28;20164;-26
2024/01/02 05:37:40;;;;;;;39.80;24.10;;;;;;;9.79;69.35;99389.72;5014536;28;20056;-26
2024/01/02 05:40:06;;;;;;;42.67;24.48;;;;;;;9.74;69.56;99393.00;5014729;28;20490;-27
2024/01/02 05:42:32;;;;;;;48.55;23.50;;;;;;;9.91;69.22;99404.00;5014381;28;20032;-26
2024/01/02 05:44:57;;;;;;;39.17;23.17;;;;;;;9.93;69.10;99411.78;5014387;28;20018;-26
2024/01/02 05:47:22;;;;;;;43.05;25.00;;;;;;;9.97;68.35;99419.13;5014275;28;20025;-27
2024/01/02 05:49:48;;;;;;;46.10;24.70;;;;;;;9.81;68.97;99418.75;5014462;28;20053;-26
2024/01/02 05:52:13;;;;;;;40.25;24.25;;;;;;;9.78;69.14;99414.66;5014287;28;20414;-27
2024/01/02 05:54:39;;;;;;;40.45;24.92;;;;;;;9.81;69.15;99413.44;5014143;28;20025;-27
2024/01/02 05:57:04;;;;;;;43.47;24.42;;;;;;;9.88;68.86;99424.88;5014102;28;20054;-27
2024/01/02 05:59:30;;;;;;;43.92;24.15;;;;;;;9.88;69.11;99424.88;5012792;28;20472;-27
2024/01/02 06:01:55;;;;;;;39.60;23.77;;;;;;;9.88;68.95;99428.38;5014075;28;20022;-26
2024/01/02 06:04:20;;;;;;;47.08;25.60;;;;;;;9.84;69.47;99429.78;5013740;28;20478;-27
2024/01/02 06:06:46;;;;;;;46.20;26.92;;;;;;;9.58;70.04;99428.78;5013768;28;20018;-26
2024/01/02 06:09:11;;;;;;;50.80;28.25;;;;;;;9.41;70.29;99430.22;5014267;28;20125;-27
2024/01/02 06:11:36;;;;;;;51.65;27.90;;;;;;;9.35;70.92;99434.50;5025716;28;20079;-27
2024/01/02 06:14:02;;;;;;;51.83;29.73;;;;;;;9.00;72.17;99434.66;5034128;28;20049;-27
2024/01/02 06:16:27;;;;;;;56.92;31.50;;;;;;;8.93;72.17;99446.22;5034119;28;20084;-27
2024/01/02 06:18:53;;;;;;;54.30;29.95;;;;;;;8.90;72.60;99451.97;5034014;28;20032;-26
2024/01/02 06:21:18;;;;;;;55.95;31.50;;;;;;;9.14;71.48;99450.59;5033001;28;20017;-27
2024/01/02 06:23:43;;;;;;;55.42;30.63;;;;;;;9.25;70.64;99449.19;5033506;28;20060;-26
2024/01/02 06:26:09;;;;;;;55.63;31.10;;;;;;;9.45;70.58;99458.00;5033446;28;20393;-27
2024/01/02 06:28:34;;;;;;;61.53;32.63;;;;;;;9.44;70.39;99458.19;5033417;28;20029;-27
2024/01/02 06:31:05;;;;;;;60.03;32.88;;;;;;;9.57;70.00;99472.28;5033276;28;20053;-26
2024/01/02 06:33:31;;;;;;;62.22;32.28;;;;;;;9.67;69.54;99465.75;5032728;28;20112;-26
2024/01/02 06:35:56;;;;;;;55.42;31.27;;;;;;;9.78;68.84;99470.47;5031513;28;20025;-26
2024/01/02 06:38:22;;;;;;;58.08;32.58;;;;;;;9.86;68.84;99475.59;5032117;28;20034;-26
2024/01/02 06:40:47;;;;;;;65.07;35.03;;;;;;;9.93;67.91;99472.91;5032325;28;20021;-26
2024/01/02 06:43:12;;;;;;;61.20;34.33;;;;;;;9.97;68.66;99468.81;5032716;28;20025;-26
2024/01/02 06:45:38;;;;;;;61.88;34.90;;;;;;;9.70;69.23;99468.84;5032755;28;20079;-26
2024/01/02 06:48:03;;;;;;;72.43;34.65;;;;;;;9.76;69.21;99473.31;5032676;28;20108;-26
2024/01/02 06:50:29;;;;;;;63.35;33.72;;;;;;;9.73;69.12;99460.47;5032817;28;20045;-28
2024/01/02 06:52:54;;;;;;;61.70;33.70;;;;;;;9.79;68.80;99464.16;5032871;28;20068;-26
2024/01/02 06:55:20;;;;;;;56.30;31.70;;;;;;;9.86;68.48;99469.44;5033058;28;20025;-27
2024/01/02 06:57:46;;;;;;;55.30;30.98;;;;;;;9.78;68.40;99470.47;5032824;28;20407;-27
2024/01/02 07:00:13;;;;;;;58.83;32.92;;;;;;;9.33;69.84;99454.31;5032671;28;20026;-27
2024/01/02 07:02:39;;;;;;;58.47;33.75;;;;;;;9.51;69.48;99454.50;5032667;28;20104;-27
2024/01/02 07:05:05;;;;;;;96.10;47.78;;;;;;;9.51;68.99;99446.56;5032510;28;20029;-27
2024/01/02 07:07:32;;;;;;;70.20;37.47;;;;;;;9.21;70.45;99438.13;5032258;28;20022;-27
2024/01/02 07:09:57;;;;;;;56.38;31.48;;;;;;;8.61;72.75;99432.69;5032212;28;20044;-27
2024/01/02 07:12:23;;;;;;;54.53;31.05;;;;;;;8.59;73.47;99426.75;5032255;28;20025;-27
2024/01/02 07:14:48;;;;;;;52.58;29.10;;;;;;;9.09;71.67;99414.03;5031025;28;20044;-27
2024/01/02 07:17:18;;;;;;;47.72;28.58;;;;;;;8.93;72.07;99422.34;5032420;28;20024;-27
2024/01/02 07:19:43;;;;;;;50.75;27.60;;;;;;;9.10;71.65;99428.09;5032734;28;20060;-26
2024/01/02 07:22:09;;;;;;;54.80;28.95;;;;;;;9.04;72.10;99426.28;5032271;28;20053;-26
2024/01/02 07:24:34;;;;;;;77.78;34.17;;;;;;;9.28;71.59;99441.63;5031935;28;20049;-27
2024/01/02 07:26:59;;;;;;;70.78;33.20;;;;;;;8.88;72.33;99457.47;5031828;28;20360;-26
2024/01/02 07:29:25;;;;;;;68.90;34.10;;;;;;;8.19;75.24;99461.81;5032072;28;20021;-27
2024/01/02 07:31:50;;;;;;;75.93;42.60;;;;;;;8.06;75.97;99459.06;5031346;28;20083;-29
2024/01/02 07:34:15;;;;;;;69.00;40.85;;;;;;;8.48;74.58;99453.84;5032270;28;20022;-27
2024/01/02 07:36:41;;;;;;;81.50;44.05;;;;;;;8.82;73.32;99452.97;5031771;28;20017;-28
2024/01/02 07:39:06;;;;;;;68.28;37.40;;;;;;;9.23;71.96;99448.56;5032075;28;20075;-27
2024/01/02 07:41:32;;;;;;;66.85;36.72;;;;;;;9.41;71.28;99448.81;5032014;28;20048;-27
2024/01/02 07:43:57;;;;;;;64.35;35.35;;;;;;;9.41;70.66;99455.97;5032164;28;20022;-27
2024/01/02 07:46:23;;;;;;;58.78;33.13;;;;;;;9.71;69.98;99467.81;5030382;28;20129;-26
2024/01/02 07:48:49;;;;;;;51.70;29.35;;;;;;;9.31;71.02;99467.78;5032047;28;20026;-27
2024/01/02 07:51:15;;;;;;;51.03;29.02;;;;;;;9.61;70.30;99466.59;5031763;28;20049;-27
2024/01/02 07:53:40;;;;;;;56.97;31.23;;;;;;;9.94;68.76;99471.91;5031671;28;20033;-29
2024/01/02 07:56:06;;;;;;;50.63;31.27;;;;;;;10.11;67.85;99477.59;5031572;28;20485;-26
2024/01/02 07:58:31;;;;;;;54.38;29.95;;;;;;;10.05;68.18;99484.59;5031620;28;20029;-27
2024/01/02 08:00:56;;;;;;;47.00;28.30;;;;;;;9.95;69.12;99486.81;5031946;28;20071;-27
2024/01/02 08:03:22;;;;;;;46.60;26.92;;;;;;;10.08;69.94;99492.13;5031708;28;20035;-27
2024/01/02 08:05:47;;;;;;;43.45;26.95;;;;;;;10.37;69.24;99495.38;5031906;28;20029;-27
2024/01/02 08:08:13;;;;;;;42.10;25.27;;;;;;;10.49;68.35;99500.88;5031869;28;20036;-28
2024/01/02 08:10:38;;;;;;;43.67;26.30;;;;;;;10.57;67.96;99498.81;5032160;28;20044;-27
2024/01/02 08:13:03;;;;;;;43.97;25.67;;;;;;;10.87;67.29;99516.94;5031862;28;20045;-29
2024/01/02 08:15:30;;;;;;;45.42;25.70;;;;;;;11.07;65.79;99508.03;5031677;28;20115;-26
2024/01/02 08:17:57;;;;;;;43.92;26.52;;;;;;;11.44;65.61;99508.25;5031508;28;20442;-26
2024/01/02 08:20:22;;;;;;;41.92;25.25;;;;;;;11.63;64.52;99523.31;5031683;28;20048;-26
2024/01/02 08:22:47;;;;;;;42.20;25.50;;;;;;;11.71;64.43;99520.38;5031671;28;20440;-28
2024/01/02 08:25:13;;;;;;;42.90;25.05;;;;;;;11.96;63.73;99524.13;5031393;28;20409;-29
2024/01/02 08:27:39;;;;;;;45.97;25.85;;;;;;;12.01;63.61;99522.41;5031478;28;20014;-27
2024/01/02 08:30:05;;;;;;;41.10;25.70;;;;;;;12.13;63.00;99526.00;5031211;28;20519;-30
2024/01/02 08:32:30;;;;;;;43.13;25.35;;;;;;;12.41;61.63;99522.03;5031347;28;20025;-28
2024/01/02 08:34:55;;;;;;;44.70;25.65;;;;;;;12.58;61.13;99526.81;5031283;28;20395;-26
2024/01/02 08:37:21;;;;;;;53.60;26.92;;;;;;;12.42;61.83;99528.22;5031300;28;20410;-28
2024/01/02 08:39:47;;;;;;;44.33;26.60;;;;;;;12.18;63.13;99525.34;5031366;28;20174;-27
2024/01/02 08:42:14;;;;;;;45.50;26.17;;;;;;;12.40;62.64;99527.63;5031450;28;20025;-27
2024/01/02 08:44:39;;;;;;;46.17;28.33;;;;;;;12.84;61.22;99531.84;5030767;28;20045;-27
2024/01/02 08:47:05;;;;;;;50.70;28.35;;;;;;;13.07;59.90;99533.84;5030827;28;20452;-28
2024/01/02 08:49:30;;;;;;;48.58;28.50;;;;;;;13.22;59.67;99530.78;5031160;28;20446;-27
2024/01/02 08:51:56;;;;;;;46.00;29.08;;;;;;;13.13;60.21;99534.78;5030682;28;20031;-28
2024/01/02 08:54:21;;;;;;;46.92;28.83;;;;;;;13.08;59.62;99540.03;5031231;28;20434;-26
2024/01/02 08:56:46;;;;;;;47.75;27.55;;;;;;;13.09;59.72;99542.44;5030877;28;20052;-27
2024/01/02 08:59:12;;;;;;;41.92;26.83;;;;;;;12.83;60.80;99540.94;5031129;28;20029;-29
2024/01/02 09:01:37;;;;;;;48.40;28.50;;;;;;;12.82;60.54;99541.16;5031273;28;20030;-27
2024/01/02 09:04:04;;;;;;;47.03;28.83;;;;;;;13.14;59.97;99544.44;5030887;28;20049;-28
2024/01/02 09:06:29;;;;;;;50.78;28.27;;;;;;;13.41;58.91;99544.13;5030761;28;20419;-28
2024/01/02 09:08:57;;;;;;;46.22;27.60;;;;;;;13.48;58.78;99544.88;5030870;28;20052;-27
2024/01/02 09:11:24;;;;;;;50.92;27.83;;;;;;;13.66;58.50;99535.97;5031079;28;20022;-27
2024/01/02 09:13:49;;;;;;;46.72;27.98;;;;;;;13.52;59.13;99543.38;5030765;28;20032;-28
2024/01/02 09:16:15;;;;;;;42.55;26.38;;;;;;;13.68;58.73;99539.22;5030860;28;20025;-26
2024/01/02 09:18:40;;;;;;;42.13;25.08;;;;;;;13.49;59.89;99525.09;5030939;28;20029;-27
2024/01/02 09:21:06;;;;;;;45.40;26.88;;;;;;;13.45;59.83;99537.28;5030983;28;20025;-27
2024/01/02 09:23:34;;;;;;;41.92;24.45;;;;;;;13.49;59.97;99533.91;5030699;28;20124;-27
2024/01/02 09:26:04;;;;;;;40.50;24.40;;;;;;;13.48;60.96;99531.50;5030557;28;20025;-26
2024/01/02 09:28:30;;;;;;;35.08;21.48;;;;;;;13.24;61.42;99530.56;5030377;28;20021;-27
2024/01/02 09:30:56;;;;;;;28.80;19.38;;;;;;;12.98;62.49;99529.84;5030432;28;20144;-27
2024/01/02 09:33:23;;;;;;;34.20;18.45;;;;;;;12.88;63.00;99530.38;5030630;28;20096;-27
2024/01/02 09:35:48;;;;;;;31.00;17.75;;;;;;;12.55;65.05;99532.63;5030872;28;20034;-27
2024/01/02 09:38:15;;;;;;;28.80;16.48;;;;;;;12.83;64.39;99532.06;5030247;28;20022;-27
2024/01/02 09:40:46;;;;;;;28.05;16.55;;;;;;;12.96;63.98;99525.78;5030230;28;20027;-26
2024/01/02 09:43:21;;;;;;;25.98;16.02;;;;;;;12.56;65.29;99534.22;5030432;28;20048;-27
2024/01/02 09:46:04;;;;;;;22.63;14.98;;;;;;;12.41;66.18;99526.56;5030595;28;20109;-28
2024/01/02 09:49:13;;;;;;;23.83;14.95;;;;;;;12.28;67.24;99528.34;5030756;28;20103;-27
2024/01/02 09:51:57;;;;;;;26.58;15.20;;;;;;;11.98;68.09;99533.53;5027424;28;20421;-27
2024/01/02 09:54:50;;;;;;;27.48;15.95;;;;;;;12.28;67.88;99525.69;5030507;28;20017;-27
2024/01/02 09:57:43;;;;;;;24.35;15.15;;;;;;;11.70;71.89;99524.06;5031936;28;20033;-27
2024/01/02 10:00:17;;;;;;;24.52;15.15;;;;;;;11.88;70.75;99520.66;5034342;28;20033;-27
2024/01/02 10:02:42;;;;;;;22.92;14.57;;;;;;;12.16;70.50;99522.09;5033988;28;20401;-28
2024/01/02 10:05:19;;;;;;;26.33;15.20;;;;;;;12.32;70.57;99528.72;5034124;28;20040;-28
2024/01/02 10:08:09;;;;;;;23.27;14.93;;;;;;;12.05;71.09;99536.13;5034036;28;20095;-27
2024/01/02 10:10:47;;;;;;;25.02;15.65;;;;;;;11.92;72.62;99531.75;5034287;28;20152;-27
2024/01/02 10:13:43;;;;;;;25.08;14.43;;;;;;;12.14;72.75;99526.81;5033951;28;20025;-28
2024/01/02 10:16:15;;;;;;;23.45;14.57;;;;;;;11.60;74.97;99521.06;5033705;28;20022;-28
2024/01/02 10:19:00;;;;;;;24.42;14.30;;;;;;;11.33;76.78;99502.59;5033937;28;20025;-28
2024/01/02 10:21:38;;;;;;;24.42;14.30;;;;;;;11.57;76.13;99510.00;5033880;28;20022;-27
2024/01/02 10:24:34;;;;;;;22.70;13.63;;;;;;;11.97;75.61;99515.88;5033510;28;20034;-29
2024/01/02 10:27:03;;;;;;;24.27;15.50;;;;;;;12.32;74.09;99515.38;5028610;28;20470;-27
2024/01/02 10:29:37;;;;;;;23.20;14.55;;;;;;;12.54;73.07;99512.28;5033788;28;20112;-28
2024/01/02 10:32:19;;;;;;;23.02;15.27;;;;;;;12.70;72.63;99499.16;5033635;28;20044;-27
2024/01/02 10:35:03;;;;;;;23.95;14.50;;;;;;;12.33;74.56;99493.78;5033471;28;20489;-28
2024/01/02 10:37:35;;;;;;;20.60;12.90;;;;;;;12.16;75.22;99491.94;5033820;28;20025;-28
2024/01/02 10:40:15;;;;;;;20.35;12.73;;;;;;;12.36;75.56;99499.75;5033531;28;20024;-28
2024/01/02 10:42:46;;;;;;;23.30;12.63;;;;;;;12.63;74.50;99503.75;5033508;28;20127;-27
2024/01/02 10:45:19;;;;;;;18.42;11.75;;;;;;;12.60;74.87;99501.53;5032994;28;20087;-28
2024/01/02 10:48:01;;;;;;;15.85;10.65;;;;;;;12.35;76.68;99487.44;5033048;28;20111;-27
2024/01/02 10:50:34;;;;;;;15.98;9.88;;;;;;;12.14;78.63;99478.81;5032873;28;20053;-28
2024/01/02 10:53:17;;;;;;;16.52;10.00;;;;;;;12.27;78.53;99486.69;5032970;28;20029;-28
2024/01/02 10:55:48;;;;;;;12.68;8.43;;;;;;;12.61;77.20;99483.66;5033014;28;20040;-28
2024/01/02 10:58:19;;;;;;;11.02;7.00;;;;;;;12.96;74.58;99483.03;5032981;28;20026;-27
2024/01/02 11:00:59;;;;;;;13.00;7.53;;;;;;;13.01;74.61;99486.66;5032786;28;20021;-27
2024/01/02 11:03:28;;;;;;;11.38;7.55;;;;;;;13.21;73.66;99481.06;5032492;28;20025;-27
2024/01/02 11:06:12;;;;;;;9.83;7.00;;;;;;;13.55;73.25;99486.75;5032516;28;20053;-28
2024/01/02 11:08:53;;;;;;;11.77;7.45;;;;;;;13.44;72.61;99490.19;5032829;28;20264;-28
2024/01/02 11:11:18;;;;;;;;;;;;;;;13.91;70.19;99487.63;5033266;28;20048;-27
2024/01/02 11:13:46;;;;;;;11.30;6.80;;;;;;;13.62;70.44;99479.44;5032551;28;19909;-27
2024/01/02 11:16:16;;;;;;;10.48;7.18;;;;;;;13.39;72.00;99480.22;5032713;28;20105;-28
2024/01/02 11:18:46;;;;;;;13.27;7.57;;;;;;;13.94;70.76;99479.16;5032703;28;20104;-27
2024/01/02 11:21:56;;;;;;;10.63;6.82;;;;;;;14.29;69.24;99475.63;5032398;28;20401;-28
2024/01/02 11:24:24;;;;;;;10.18;7.05;;;;;;;14.17;68.61;99472.19;5020277;28;20040;-29